Time;durP1;ratioP1;P1;durP2;ratioP2;P2;SDS_P1;SDS_P2;PMS_P1;PMS_P2;Temp;Humidity;BMP_temperature;BMP_pressure;BME280_temperature;BME280_humidity;BME280_pressure;Samples;Min_cycle;Max_cycle;Signal;HPM_P1;HPM_P2
2021/09/10 00:02:14;;;;;;;10.48;9.00;;;20.30;99.90;;;;;;4965618;28;20035;-84
2021/09/10 00:04:40;;;;;;;10.23;8.48;;;20.30;99.90;;;;;;4981872;28;20094;-83
2021/09/10 00:07:06;;;;;;;11.40;8.50;;;20.30;99.90;;;;;;4965611;28;20039;-83
2021/09/10 00:09:31;;;;;;;13.13;9.50;;;20.30;99.90;;;;;;4965291;28;20481;-84
2021/09/10 00:11:57;;;;;;;15.48;8.55;;;20.30;99.90;;;;;;4946360;29;20060;-84
2021/09/10 00:14:23;;;;;;;10.75;8.38;;;20.30;99.90;;;;;;4946712;29;20063;-84
2021/09/10 00:16:48;;;;;;;11.32;8.30;;;20.30;99.90;;;;;;4946327;28;20028;-83
2021/09/10 00:19:14;;;;;;;10.23;8.15;;;20.30;99.90;;;;;;4981329;28;20059;-84
2021/09/10 00:21:39;;;;;;;12.00;9.15;;;20.30;99.90;;;;;;4965797;28;20030;-84
2021/09/10 00:24:05;;;;;;;13.93;9.35;;;20.30;99.90;;;;;;4966062;28;20476;-84
2021/09/10 00:26:31;;;;;;;10.80;9.68;;;20.20;99.90;;;;;;4966652;28;20057;-84
2021/09/10 00:28:57;;;;;;;10.52;8.75;;;20.10;99.90;;;;;;4965455;29;20066;-84
2021/09/10 00:31:22;;;;;;;12.23;9.68;;;20.10;99.90;;;;;;4981335;28;20028;-85
2021/09/10 00:33:48;;;;;;;13.00;9.40;;;20.10;99.90;;;;;;4966180;28;20043;-83
2021/09/10 00:36:14;;;;;;;11.77;9.15;;;20.10;99.90;;;;;;4968983;28;20027;-84
2021/09/10 00:38:39;;;;;;;11.18;8.45;;;20.00;99.90;;;;;;4984691;28;20036;-84
2021/09/10 00:41:05;;;;;;;15.55;9.85;;;19.90;99.90;;;;;;4984912;28;20061;-84
2021/09/10 00:43:31;;;;;;;11.40;9.00;;;19.90;99.90;;;;;;4968819;28;20133;-83
2021/09/10 00:46:16;;;;;;;10.88;9.07;;;19.90;99.90;;;;;;4968802;28;20031;-83
2021/09/10 00:48:45;;;;;;;11.10;9.18;;;19.90;99.90;;;;;;4967523;29;20055;-84
2021/09/10 00:51:11;;;;;;;11.75;10.00;;;19.80;99.90;;;;;;4950934;29;20053;-83
2021/09/10 00:53:36;;;;;;;10.25;9.25;;;19.80;99.90;;;;;;4967508;29;20106;-83
2021/09/10 00:56:02;;;;;;;11.30;9.93;;;19.80;99.90;;;;;;4935356;29;20067;-83
2021/09/10 00:58:28;;;;;;;12.90;9.35;;;19.70;99.90;;;;;;4935273;29;20031;-84
2021/09/10 01:00:54;;;;;;;11.43;9.15;;;19.70;99.90;;;;;;4951081;29;20132;-84
2021/09/10 01:03:19;;;;;;;12.43;10.30;;;19.70;99.90;;;;;;4935305;29;20039;-83
2021/09/10 01:05:45;;;;;;;13.07;9.98;;;19.70;99.90;;;;;;4967206;29;20043;-84
2021/09/10 01:08:12;;;;;;;10.10;8.93;;;19.70;99.90;;;;;;4961222;29;20047;-84
2021/09/10 01:10:40;;;;;;;10.95;9.32;;;19.70;99.90;;;;;;4931982;29;20028;-84
2021/09/10 01:13:07;;;;;;;13.63;9.80;;;19.70;99.90;;;;;;4932117;29;20044;-84
2021/09/10 01:15:33;;;;;;;11.57;9.40;;;19.70;99.90;;;;;;4931768;29;20087;-84
2021/09/10 01:17:59;;;;;;;10.57;9.48;;;19.70;99.90;;;;;;4940695;29;20027;-84
2021/09/10 01:20:24;;;;;;;12.27;11.05;;;19.70;99.90;;;;;;4950805;29;20435;-84
2021/09/10 01:22:50;;;;;;;11.43;9.52;;;19.70;99.90;;;;;;4966842;29;20039;-83
2021/09/10 01:25:20;;;;;;;12.70;8.70;;;19.60;99.90;;;;;;4932130;29;20051;-83
2021/09/10 01:27:57;;;;;;;10.57;9.50;;;19.60;99.90;;;;;;4948450;29;20046;-84
2021/09/10 01:30:30;;;;;;;10.35;8.55;;;19.50;99.90;;;;;;4948598;29;20031;-84
2021/09/10 01:32:57;;;;;;;11.10;9.00;;;19.50;99.90;;;;;;4964768;29;20040;-84
2021/09/10 01:35:22;;;;;;;11.23;9.30;;;19.40;99.90;;;;;;4948672;29;20032;-84
2021/09/10 01:37:48;;;;;;;11.43;9.90;;;19.40;99.90;;;;;;4948459;29;20040;-84
2021/09/10 01:40:14;;;;;;;12.55;9.52;;;19.40;99.90;;;;;;4964460;29;20508;-83
2021/09/10 01:42:41;;;;;;;10.13;9.07;;;19.40;99.90;;;;;;4949614;29;20032;-85
2021/09/10 01:45:08;;;;;;;9.98;8.75;;;19.30;99.90;;;;;;4948169;29;20031;-85
2021/09/10 01:47:35;;;;;;;11.80;9.32;;;19.30;99.90;;;;;;4964179;29;20066;-84
2021/09/10 01:50:06;;;;;;;11.77;9.52;;;19.30;99.90;;;;;;4948309;29;20043;-83
2021/09/10 01:52:32;;;;;;;11.77;9.55;;;19.20;99.90;;;;;;4964162;29;20040;-84
2021/09/10 01:54:58;;;;;;;11.77;9.20;;;19.20;99.90;;;;;;4964258;29;20038;-84
2021/09/10 01:57:23;;;;;;;11.10;9.45;;;19.20;99.90;;;;;;4948121;29;20039;-84
2021/09/10 01:59:49;;;;;;;10.95;8.77;;;19.20;99.90;;;;;;4948169;29;20042;-84
2021/09/10 02:02:15;;;;;;;10.38;8.38;;;19.10;99.90;;;;;;4948182;29;20103;-86
2021/09/10 02:04:40;;;;;;;9.48;8.15;;;19.10;99.90;;;;;;4964216;29;20170;-84
2021/09/10 02:07:06;;;;;;;10.30;8.68;;;19.10;99.90;;;;;;4947998;29;20063;-84
2021/09/10 02:09:33;;;;;;;10.25;8.25;;;19.10;99.90;;;;;;4963904;29;20488;-84
2021/09/10 02:12:01;;;;;;;12.07;9.27;;;19.00;99.90;;;;;;4947870;28;20195;-84
2021/09/10 02:14:27;;;;;;;10.63;8.55;;;18.90;99.90;;;;;;4947840;28;20130;-84
2021/09/10 02:16:53;;;;;;;9.63;8.30;;;18.90;99.90;;;;;;4947885;28;20138;-84
2021/09/10 02:19:19;;;;;;;10.95;8.73;;;19.00;99.90;;;;;;4967058;28;20035;-84
2021/09/10 02:21:44;;;;;;;8.35;7.10;;;19.00;99.90;;;;;;4983033;28;20059;-84
2021/09/10 02:24:10;;;;;;;10.25;7.25;;;19.00;99.90;;;;;;4968126;28;20035;-84
2021/09/10 02:26:36;;;;;;;10.10;8.20;;;19.00;99.90;;;;;;4982991;28;20035;-83
2021/09/10 02:29:02;;;;;;;9.82;7.57;;;19.00;99.90;;;;;;4967719;28;20050;-83
2021/09/10 02:31:27;;;;;;;9.77;7.03;;;18.90;99.90;;;;;;4982895;28;20051;-83
2021/09/10 02:33:53;;;;;;;10.15;7.90;;;18.90;99.90;;;;;;4966666;28;20027;-83
2021/09/10 02:36:19;;;;;;;8.85;7.07;;;18.90;99.90;;;;;;4966765;28;20042;-84
2021/09/10 02:38:44;;;;;;;8.50;6.95;;;18.90;99.90;;;;;;4966356;28;20042;-83
2021/09/10 02:41:10;;;;;;;7.95;6.78;;;18.90;99.90;;;;;;4982742;28;20027;-84
2021/09/10 02:43:35;;;;;;;7.85;7.15;;;18.90;99.90;;;;;;4982535;28;20039;-84
2021/09/10 02:46:21;;;;;;;8.30;6.40;;;18.90;99.90;;;;;;4966427;28;20070;-83
2021/09/10 02:48:47;;;;;;;8.55;6.85;;;18.90;99.90;;;;;;4948813;29;20063;-84
2021/09/10 02:51:12;;;;;;;6.63;5.90;;;18.80;99.90;;;;;;4965352;29;20054;-83
2021/09/10 02:53:38;;;;;;;8.60;7.07;;;18.80;99.90;;;;;;4949143;29;20090;-84
2021/09/10 02:56:05;;;;;;;7.85;6.75;;;18.80;99.90;;;;;;4933251;28;20024;-83
2021/09/10 02:58:31;;;;;;;8.38;6.63;;;18.80;99.90;;;;;;4948766;29;20068;-83
2021/09/10 03:00:59;;;;;;;9.20;6.53;;;18.70;99.90;;;;;;4949060;29;20040;-83
2021/09/10 03:03:27;;;;;;;7.27;5.80;;;18.70;99.90;;;;;;4949429;29;20031;-83
2021/09/10 03:05:53;;;;;;;7.90;6.78;;;18.70;99.90;;;;;;4933262;29;20093;-84
2021/09/10 03:08:18;;;;;;;7.32;5.72;;;18.70;99.90;;;;;;4958362;29;20039;-83
2021/09/10 03:10:44;;;;;;;7.68;6.30;;;18.70;99.90;;;;;;4930056;29;20051;-83
2021/09/10 03:13:10;;;;;;;6.82;6.13;;;18.60;99.90;;;;;;4929883;29;20435;-82
2021/09/10 03:15:36;;;;;;;7.93;6.30;;;18.60;99.90;;;;;;4930910;29;20035;-82
2021/09/10 03:18:01;;;;;;;7.57;6.05;;;18.60;99.90;;;;;;4940394;29;20035;-84
2021/09/10 03:20:27;;;;;;;6.45;5.80;;;18.50;99.90;;;;;;4949909;29;20074;-84
2021/09/10 03:22:53;;;;;;;8.20;6.05;;;18.50;99.90;;;;;;4933145;29;20039;-83
2021/09/10 03:25:18;;;;;;;6.85;6.07;;;18.50;99.90;;;;;;4935524;29;20036;-83
2021/09/10 03:27:44;;;;;;;6.82;5.82;;;18.50;99.90;;;;;;4981810;28;20070;-83
2021/09/10 03:30:11;;;;;;;5.60;5.00;;;18.50;99.90;;;;;;4982065;28;20035;-83
2021/09/10 03:32:36;;;;;;;8.10;5.25;;;18.60;99.90;;;;;;4982137;28;20365;-83
2021/09/10 03:35:02;;;;;;;7.10;5.13;;;18.50;99.90;;;;;;4965916;28;20035;-83
2021/09/10 03:37:28;;;;;;;7.28;5.13;;;18.50;99.90;;;;;;4965778;28;20099;-84
2021/09/10 03:39:54;;;;;;;6.10;4.63;;;18.50;99.90;;;;;;4981856;28;20059;-83
2021/09/10 03:42:20;;;;;;;5.85;5.25;;;18.50;99.90;;;;;;4982096;28;20035;-84
2021/09/10 03:44:45;;;;;;;6.63;4.80;;;18.50;99.90;;;;;;4965735;28;20031;-83
2021/09/10 03:47:11;;;;;;;7.13;5.18;;;18.50;99.90;;;;;;4985039;23;20060;-82
2021/09/10 03:49:37;;;;;;;6.40;5.47;;;18.50;99.90;;;;;;4948037;29;20043;-83
2021/09/10 03:52:04;;;;;;;6.25;4.93;;;18.60;99.90;;;;;;4946912;29;20032;-83
2021/09/10 03:54:30;;;;;;;5.70;4.57;;;18.50;99.90;;;;;;4947189;29;20063;-83
2021/09/10 03:56:55;;;;;;;5.80;4.88;;;18.50;99.90;;;;;;4948288;29;20472;-82
2021/09/10 03:59:21;;;;;;;6.43;4.63;;;18.50;99.90;;;;;;4962669;29;20039;-83
2021/09/10 04:01:47;;;;;;;5.55;4.40;;;18.40;99.90;;;;;;4948050;29;20031;-83
2021/09/10 04:04:12;;;;;;;6.03;5.07;;;18.40;99.90;;;;;;4962916;28;20126;-83
2021/09/10 04:06:42;;;;;;;6.05;3.90;;;18.40;99.90;;;;;;4962989;29;20035;-83
2021/09/10 04:09:09;;;;;;;6.45;4.93;;;18.30;99.90;;;;;;4965134;28;20035;-83
2021/09/10 04:11:37;;;;;;;5.38;4.72;;;18.30;99.90;;;;;;4950533;29;20043;-83
2021/09/10 04:14:02;;;;;;;5.88;4.63;;;18.30;99.90;;;;;;4950311;29;20043;-83
2021/09/10 04:16:28;;;;;;;6.40;4.80;;;18.30;99.90;;;;;;4950172;29;20043;-83
2021/09/10 04:18:53;;;;;;;7.55;4.90;;;18.30;99.90;;;;;;4950046;29;20034;-83
2021/09/10 04:21:19;;;;;;;7.93;4.63;;;18.20;99.90;;;;;;4934004;29;20440;-83
2021/09/10 04:23:45;;;;;;;6.28;5.25;;;18.30;99.90;;;;;;4934202;29;20027;-83
2021/09/10 04:26:11;;;;;;;6.45;5.05;;;18.20;99.90;;;;;;4966038;28;20059;-83
2021/09/10 04:28:36;;;;;;;6.45;4.90;;;18.20;99.90;;;;;;4933867;29;20047;-83
2021/09/10 04:31:02;;;;;;;5.57;4.95;;;18.20;99.90;;;;;;4934033;29;20036;-83
2021/09/10 04:33:27;;;;;;;6.40;4.75;;;18.20;99.90;;;;;;4950109;29;20035;-83
2021/09/10 04:35:53;;;;;;;6.63;4.35;;;18.30;99.90;;;;;;4933988;29;20031;-84
2021/09/10 04:38:19;;;;;;;6.20;4.55;;;18.20;99.90;;;;;;4965744;28;20032;-83
2021/09/10 04:40:44;;;;;;;4.75;4.25;;;18.20;99.90;;;;;;4965725;28;20839;-83
2021/09/10 04:43:10;;;;;;;5.97;5.38;;;18.20;99.90;;;;;;4949869;29;20046;-84
2021/09/10 04:45:36;;;;;;;5.72;5.03;;;18.20;99.90;;;;;;4933654;29;20032;-84
2021/09/10 04:48:01;;;;;;;6.05;5.15;;;18.20;99.90;;;;;;4933194;29;20044;-84
2021/09/10 04:50:27;;;;;;;4.82;4.10;;;18.20;99.90;;;;;;4948867;29;20039;-84
2021/09/10 04:52:53;;;;;;;4.93;4.18;;;18.20;99.90;;;;;;4950769;29;20054;-84
2021/09/10 04:55:19;;;;;;;5.70;4.60;;;18.20;99.90;;;;;;4933674;29;20032;-84
2021/09/10 04:57:45;;;;;;;7.10;4.88;;;18.20;99.90;;;;;;4949458;29;20042;-84
2021/09/10 05:00:12;;;;;;;5.95;4.60;;;18.20;99.90;;;;;;4950176;29;20036;-84
2021/09/10 05:02:38;;;;;;;6.10;4.55;;;18.20;99.90;;;;;;4949368;29;20064;-84
2021/09/10 05:05:05;;;;;;;6.60;5.30;;;18.20;99.90;;;;;;4933303;29;20040;-83
2021/09/10 05:07:31;;;;;;;4.70;4.22;;;18.20;99.90;;;;;;4964920;29;20174;-85
2021/09/10 05:09:56;;;;;;;4.95;4.45;;;18.20;99.90;;;;;;4948737;29;20036;-85
2021/09/10 05:12:22;;;;;;;6.05;4.88;;;18.20;99.90;;;;;;4932707;29;20074;-84
2021/09/10 05:14:51;;;;;;;5.13;4.38;;;18.20;99.90;;;;;;4946017;29;20035;-84
2021/09/10 05:17:18;;;;;;;5.18;4.45;;;18.20;99.90;;;;;;4948020;29;20515;-83
2021/09/10 05:19:43;;;;;;;5.40;4.80;;;18.20;99.90;;;;;;4963750;28;20511;-84
2021/09/10 05:22:09;;;;;;;6.63;5.93;;;18.20;99.90;;;;;;4947461;29;20032;-84
2021/09/10 05:24:35;;;;;;;6.03;4.70;;;18.20;99.90;;;;;;4932230;29;20036;-85
2021/09/10 05:27:00;;;;;;;5.85;4.95;;;18.20;99.90;;;;;;4947473;29;20024;-84
2021/09/10 05:29:26;;;;;;;5.82;4.50;;;18.20;99.90;;;;;;4947356;29;20393;-84
2021/09/10 05:31:51;;;;;;;5.57;4.82;;;18.30;99.90;;;;;;4947587;29;20516;-84
2021/09/10 05:34:17;;;;;;;5.75;4.93;;;18.30;99.90;;;;;;4931276;29;20050;-84
2021/09/10 05:36:43;;;;;;;5.97;4.80;;;18.30;99.90;;;;;;4948491;29;20437;-84
2021/09/10 05:39:08;;;;;;;5.65;4.32;;;18.40;99.90;;;;;;4963122;28;20556;-84
2021/09/10 05:41:34;;;;;;;6.38;5.70;;;18.40;99.90;;;;;;4947545;29;20032;-83
2021/09/10 05:43:59;;;;;;;5.70;4.88;;;18.50;99.90;;;;;;4948942;29;20083;-84
2021/09/10 05:46:25;;;;;;;6.13;4.82;;;18.50;99.90;;;;;;4931285;29;20046;-84
2021/09/10 05:48:50;;;;;;;6.35;5.75;;;18.60;99.90;;;;;;4947432;29;20115;-84
2021/09/10 05:51:16;;;;;;;8.35;5.32;;;18.70;99.90;;;;;;4947514;29;20079;-84
2021/09/10 05:53:42;;;;;;;6.53;5.10;;;18.70;99.90;;;;;;4947683;29;20047;-84
2021/09/10 05:56:07;;;;;;;6.28;5.38;;;18.80;99.90;;;;;;4928883;29;20100;-84
2021/09/10 05:58:33;;;;;;;6.88;5.72;;;18.80;99.90;;;;;;4944037;29;20109;-85
2021/09/10 06:00:59;;;;;;;6.32;5.13;;;18.80;99.90;;;;;;4944179;29;20114;-84
2021/09/10 06:03:24;;;;;;;7.32;6.20;;;18.80;99.90;;;;;;4944324;29;20207;-84
2021/09/10 06:05:50;;;;;;;7.30;5.53;;;18.80;99.90;;;;;;4944269;29;20076;-85
2021/09/10 06:08:15;;;;;;;6.20;5.63;;;19.00;99.90;;;;;;4935373;29;20484;-84
2021/09/10 06:10:41;;;;;;;5.68;5.15;;;19.00;99.90;;;;;;4947395;29;20046;-84
2021/09/10 06:13:09;;;;;;;8.45;5.13;;;19.10;99.90;;;;;;4947064;29;20042;-84
2021/09/10 06:15:35;;;;;;;8.43;5.82;;;19.20;99.90;;;;;;4931090;29;20032;-83
2021/09/10 06:18:01;;;;;;;6.60;5.55;;;19.20;99.90;;;;;;4962850;29;20032;-84
2021/09/10 06:20:27;;;;;;;6.10;5.22;;;19.20;99.90;;;;;;4930762;29;20095;-83
2021/09/10 06:22:52;;;;;;;8.88;6.93;;;19.30;99.90;;;;;;4930581;29;20135;-84
2021/09/10 06:25:19;;;;;;;11.50;8.20;;;19.30;99.90;;;;;;4946480;29;20031;-83
2021/09/10 06:27:44;;;;;;;8.50;5.78;;;19.30;99.90;;;;;;4946711;29;20099;-83
2021/09/10 06:30:10;;;;;;;7.25;5.82;;;19.40;99.90;;;;;;4930858;29;20059;-84
2021/09/10 06:32:36;;;;;;;6.60;5.90;;;19.50;99.90;;;;;;4928998;29;20511;-83
2021/09/10 06:35:03;;;;;;;7.00;5.95;;;19.60;99.90;;;;;;4930835;29;20032;-83
2021/09/10 06:37:29;;;;;;;8.68;6.88;;;19.70;99.90;;;;;;4895398;29;20048;-82
2021/09/10 06:39:54;;;;;;;6.53;5.63;;;19.90;99.90;;;;;;4958851;29;20477;-82
2021/09/10 06:42:20;;;;;;;6.47;5.57;;;19.90;99.90;;;;;;4959254;29;20032;-82
2021/09/10 06:44:47;;;;;;;8.48;6.80;;;19.90;99.90;;;;;;4943706;29;20099;-82
2021/09/10 06:47:13;;;;;;;8.05;6.07;;;19.90;99.90;;;;;;4946048;29;20571;-82
2021/09/10 06:49:38;;;;;;;7.53;6.75;;;19.80;99.90;;;;;;4962339;28;20055;-81
2021/09/10 06:52:04;;;;;;;6.45;5.75;;;19.90;99.90;;;;;;4930540;29;20040;-83
2021/09/10 06:54:30;;;;;;;6.53;5.47;;;20.20;99.90;;;;;;4962439;28;20062;-82
2021/09/10 06:56:55;;;;;;;6.55;5.00;;;20.30;99.90;;;;;;4946377;29;20031;-82
2021/09/10 06:59:21;;;;;;;7.38;5.50;;;20.40;99.90;;;;;;4946139;29;20032;-81
2021/09/10 07:01:47;;;;;;;7.30;5.88;;;20.50;99.90;;;;;;4947384;29;20516;-82
2021/09/10 07:04:13;;;;;;;7.95;7.03;;;20.50;99.90;;;;;;4946218;29;20059;-83
2021/09/10 07:06:38;;;;;;;6.13;5.35;;;20.40;99.90;;;;;;4946286;29;20032;-82
2021/09/10 07:09:04;;;;;;;6.78;5.95;;;20.50;99.90;;;;;;4930031;29;20469;-83
2021/09/10 07:11:32;;;;;;;7.50;4.97;;;20.50;99.90;;;;;;4946095;29;20050;-83
2021/09/10 07:13:59;;;;;;;8.38;6.22;;;20.50;99.90;;;;;;4945713;29;20046;-83
2021/09/10 07:16:24;;;;;;;7.50;5.95;;;20.40;99.90;;;;;;4946050;29;20036;-83
2021/09/10 07:18:50;;;;;;;9.15;6.40;;;20.40;99.90;;;;;;4942834;29;20028;-83
2021/09/10 07:21:15;;;;;;;5.93;5.28;;;20.40;99.90;;;;;;4927062;29;20032;-83
2021/09/10 07:23:41;;;;;;;6.20;4.97;;;20.40;99.90;;;;;;4942940;29;20564;-82
2021/09/10 07:26:07;;;;;;;8.35;6.07;;;20.40;99.90;;;;;;4927134;29;20036;-83
2021/09/10 07:28:34;;;;;;;6.07;5.28;;;20.40;99.90;;;;;;4910892;29;20058;-82
2021/09/10 07:31:01;;;;;;;7.72;6.82;;;20.50;99.90;;;;;;4926860;29;20039;-83
2021/09/10 07:33:26;;;;;;;9.30;6.28;;;20.40;99.90;;;;;;4926837;29;20095;-82
2021/09/10 07:35:53;;;;;;;12.00;9.48;;;20.50;99.90;;;;;;4926980;29;20037;-83
2021/09/10 07:38:19;;;;;;;8.52;6.82;;;20.30;99.90;;;;;;4933139;28;20455;-83
2021/09/10 07:40:45;;;;;;;9.10;7.22;;;20.50;99.90;;;;;;4926881;29;20052;-84
2021/09/10 07:43:10;;;;;;;7.97;7.18;;;20.40;99.90;;;;;;4928033;29;20043;-84
2021/09/10 07:45:36;;;;;;;7.28;5.70;;;20.40;99.90;;;;;;4937378;29;20075;-83
2021/09/10 07:48:01;;;;;;;8.18;6.63;;;20.50;99.90;;;;;;4964752;29;20059;-84
2021/09/10 07:50:27;;;;;;;6.65;6.00;;;20.50;99.90;;;;;;4952694;28;20028;-83
2021/09/10 07:52:53;;;;;;;7.07;6.38;;;20.70;99.90;;;;;;4933799;29;20047;-82
2021/09/10 07:55:18;;;;;;;7.45;6.50;;;20.70;99.90;;;;;;4965922;28;20031;-82
2021/09/10 07:57:44;;;;;;;8.75;5.85;;;20.80;99.90;;;;;;4965500;29;20043;-82
2021/09/10 08:00:10;;;;;;;9.63;6.38;;;20.80;99.90;;;;;;4965538;29;20028;-82
2021/09/10 08:02:37;;;;;;;6.43;5.70;;;20.80;99.90;;;;;;4948561;29;20031;-83
2021/09/10 08:05:03;;;;;;;7.38;6.72;;;21.00;99.90;;;;;;4949303;29;20051;-83
2021/09/10 08:07:29;;;;;;;8.05;6.93;;;20.80;99.90;;;;;;4949667;29;20043;-84
2021/09/10 08:09:55;;;;;;;7.63;6.10;;;20.80;99.90;;;;;;4933127;29;20059;-83
2021/09/10 08:12:20;;;;;;;6.22;4.72;;;20.90;99.90;;;;;;4949502;29;20028;-83
2021/09/10 08:14:46;;;;;;;6.20;5.57;;;21.10;99.90;;;;;;4949305;29;20074;-82
2021/09/10 08:17:11;;;;;;;6.40;5.72;;;21.10;99.90;;;;;;4949270;29;20038;-82
2021/09/10 08:19:37;;;;;;;7.70;6.03;;;21.20;99.90;;;;;;4950265;29;20090;-82
2021/09/10 08:22:03;;;;;;;7.30;6.55;;;21.10;99.90;;;;;;4933455;29;20050;-81
2021/09/10 08:24:28;;;;;;;7.10;4.95;;;21.10;99.90;;;;;;4949406;29;20559;-82
2021/09/10 08:26:54;;;;;;;4.70;4.28;;;21.30;99.90;;;;;;4933287;29;20357;-82
2021/09/10 08:29:19;;;;;;;5.45;4.22;;;21.40;99.90;;;;;;4933064;29;20047;-83
2021/09/10 08:31:45;;;;;;;7.90;5.47;;;21.40;99.90;;;;;;4949064;29;20150;-82
2021/09/10 08:34:11;;;;;;;6.28;4.15;;;21.40;99.90;;;;;;4933133;29;20059;-83
2021/09/10 08:36:36;;;;;;;4.43;3.22;;;21.50;99.90;;;;;;4933333;29;20063;-83
2021/09/10 08:39:03;;;;;;;7.18;5.07;;;21.50;99.90;;;;;;4932900;29;20103;-83
2021/09/10 08:41:34;;;;;;;7.57;5.47;;;21.50;99.90;;;;;;4950343;29;20149;-83
2021/09/10 08:44:04;;;;;;;6.90;4.32;;;21.50;99.90;;;;;;4933122;29;20027;-83
2021/09/10 08:46:30;;;;;;;7.85;7.05;;;21.60;99.90;;;;;;4932910;29;20044;-84
2021/09/10 08:48:56;;;;;;;7.22;5.40;;;21.20;99.90;;;;;;4932536;29;20119;-84
2021/09/10 08:51:21;;;;;;;10.70;8.27;;;21.40;99.90;;;;;;4949928;29;20067;-85
2021/09/10 08:53:47;;;;;;;8.38;5.97;;;21.10;99.90;;;;;;4964364;28;20043;-84
2021/09/10 08:56:14;;;;;;;8.68;6.00;;;21.40;99.90;;;;;;4964047;29;20061;-84
2021/09/10 08:58:40;;;;;;;7.05;5.05;;;21.50;99.90;;;;;;4932889;29;20032;-85
2021/09/10 09:01:06;;;;;;;9.43;5.93;;;21.50;99.90;;;;;;4932790;29;20031;-84
2021/09/10 09:03:33;;;;;;;8.05;5.78;;;21.50;99.90;;;;;;4932819;29;20043;-85
2021/09/10 09:05:59;;;;;;;7.82;5.60;;;21.70;99.90;;;;;;4964620;28;20039;-83
2021/09/10 09:08:25;;;;;;;5.03;4.18;;;22.00;99.90;;;;;;4964747;29;20492;-82
2021/09/10 09:10:57;;;;;;;4.53;3.85;;;22.10;99.90;;;;;;4965326;28;20067;-83
2021/09/10 09:13:45;;;;;;;4.13;3.72;;;22.20;99.90;;;;;;4965046;29;20043;-84
2021/09/10 09:16:28;;;;;;;5.90;4.40;;;22.30;99.90;;;;;;4948453;29;20103;-84
2021/09/10 09:19:01;;;;;;;3.78;3.38;;;22.20;99.90;;;;;;4948233;29;20035;-83
2021/09/10 09:21:28;;;;;;;5.22;3.53;;;22.40;99.90;;;;;;4964130;28;20035;-84
2021/09/10 09:24:14;;;;;;;4.88;4.40;;;22.50;99.90;;;;;;4948444;29;20127;-84
2021/09/10 09:26:42;;;;;;;5.93;3.30;;;22.40;99.90;;;;;;4932340;29;20035;-84
2021/09/10 09:29:16;;;;;;;4.38;3.75;;;22.30;99.90;;;;;;4948045;29;20036;-83
2021/09/10 09:31:52;;;;;;;5.72;4.03;;;22.30;99.90;;;;;;4964079;28;20043;-83
2021/09/10 09:34:47;;;;;;;4.93;3.33;;;22.50;99.90;;;;;;4964158;29;20135;-83
2021/09/10 09:37:18;;;;;;;5.90;4.13;;;22.80;99.90;;;;;;4948002;29;20051;-84
2021/09/10 09:39:57;;;;;;;4.22;3.83;;;23.00;99.90;;;;;;4963740;28;20122;-84
2021/09/10 09:42:27;;;;;;;5.90;3.33;;;23.10;99.90;;;;;;4964408;28;20039;-83
2021/09/10 09:45:24;;;;;;;4.13;2.10;;;22.90;99.90;;;;;;4948151;29;20044;-85
2021/09/10 09:47:51;;;;;;;4.80;3.17;;;23.20;99.90;;;;;;4963536;28;20484;-83
2021/09/10 09:50:19;;;;;;;4.32;3.35;;;23.00;99.90;;;;;;4947850;29;20665;-83
2021/09/10 09:52:49;;;;;;;6.18;3.85;;;23.30;99.90;;;;;;4931965;29;20502;-84
2021/09/10 09:55:14;;;;;;;;;;;23.00;99.90;;;;;;4964141;29;20032;-83
2021/09/10 09:57:42;;;;;;;4.22;2.80;;;23.00;99.90;;;;;;4963723;29;19971;-84
2021/09/10 10:00:08;;;;;;;3.42;2.83;;;23.00;99.90;;;;;;4931653;29;20031;-85
2021/09/10 10:02:34;;;;;;;5.85;4.05;;;23.00;99.90;;;;;;4947800;29;20032;-83
2021/09/10 10:05:01;;;;;;;5.82;3.65;;;23.00;99.90;;;;;;4931756;29;20059;-83
2021/09/10 10:07:31;;;;;;;4.60;3.72;;;23.20;99.90;;;;;;4931331;29;20043;-83
2021/09/10 10:09:58;;;;;;;5.22;3.78;;;23.40;99.90;;;;;;4928227;29;20400;-83
2021/09/10 10:12:26;;;;;;;4.75;3.47;;;23.40;99.90;;;;;;4944440;29;20048;-84
2021/09/10 10:14:52;;;;;;;3.28;2.50;;;23.60;99.90;;;;;;4944219;29;20044;-83
2021/09/10 10:17:30;;;;;;;5.93;3.35;;;23.70;99.90;;;;;;4944278;29;20032;-83
2021/09/10 10:19:56;;;;;;;4.28;3.28;;;23.60;99.90;;;;;;4928040;29;20032;-84
2021/09/10 10:22:42;;;;;;;4.75;3.85;;;24.00;99.90;;;;;;4928096;29;20043;-83
2021/09/10 10:25:10;;;;;;;5.25;3.10;;;23.90;99.90;;;;;;4928286;29;20032;-84
2021/09/10 10:27:48;;;;;;;3.28;2.97;;;23.90;99.90;;;;;;4912199;29;20043;-83
2021/09/10 10:30:17;;;;;;;5.07;3.35;;;23.90;99.90;;;;;;4929194;29;20036;-82
2021/09/10 10:32:48;;;;;;;4.43;3.17;;;24.30;99.90;;;;;;4928173;29;20036;-83
2021/09/10 10:35:30;;;;;;;5.25;3.17;;;24.40;99.90;;;;;;4928001;29;20044;-83
2021/09/10 10:38:01;;;;;;;3.38;2.55;;;24.90;99.90;;;;;;4943816;29;20056;-83
2021/09/10 10:40:45;;;;;;;6.55;2.97;;;25.00;99.90;;;;;;4943756;29;20036;-83
2021/09/10 10:43:20;;;;;;;6.15;2.83;;;25.00;99.90;;;;;;4927916;29;20040;-84
2021/09/10 10:45:45;;;;;;;4.65;2.13;;;24.60;99.90;;;;;;4943519;29;20477;-83
2021/09/10 10:48:30;;;;;;;5.25;3.05;;;24.70;99.90;;;;;;4927327;29;20059;-83
2021/09/10 10:50:56;;;;;;;4.05;2.05;;;24.70;99.90;;;;;;4928702;29;20389;-82
2021/09/10 10:53:22;;;;;;;3.92;1.80;;;25.10;99.90;;;;;;4929024;29;20036;-84
2021/09/10 10:55:48;;;;;;;4.28;3.40;;;25.10;99.90;;;;;;4943426;29;20032;-85
2021/09/10 10:58:24;;;;;;;3.50;2.50;;;24.60;99.90;;;;;;4927771;29;20102;-83
2021/09/10 11:00:52;;;;;;;4.95;3.00;;;24.70;99.90;;;;;;4927484;29;20039;-84
2021/09/10 11:03:17;;;;;;;4.30;2.65;;;24.30;99.90;;;;;;4943406;29;20067;-83
2021/09/10 11:05:50;;;;;;;4.75;2.83;;;24.40;99.90;;;;;;4928895;29;20036;-82
2021/09/10 11:08:19;;;;;;;4.38;3.92;;;25.30;99.90;;;;;;4933252;29;20032;-85
2021/09/10 11:10:50;;;;;;;5.10;3.40;;;25.30;99.90;;;;;;4946283;29;20071;-84
2021/09/10 11:13:16;;;;;;;2.28;1.65;;;24.80;99.90;;;;;;4946410;29;20047;-85
2021/09/10 11:15:41;;;;;;;4.57;2.63;;;24.90;99.90;;;;;;4946060;29;20090;-83
2021/09/10 11:18:14;;;;;;;5.05;3.65;;;25.50;99.90;;;;;;4958397;29;20028;-84
2021/09/10 11:20:48;;;;;;;6.15;2.25;;;25.30;99.90;;;;;;4927187;29;20032;-84
2021/09/10 11:23:17;;;;;;;2.50;1.80;;;26.00;99.90;;;;;;4911459;29;20036;-84
2021/09/10 11:25:48;;;;;;;2.58;1.85;;;26.10;99.90;;;;;;4927360;29;20040;-84
2021/09/10 11:28:14;;;;;;;5.05;2.30;;;26.30;99.90;;;;;;4942836;29;20139;-83
2021/09/10 11:30:41;;;;;;;3.08;1.88;;;26.50;99.90;;;;;;4926833;29;20111;-84
2021/09/10 11:33:07;;;;;;;3.80;1.65;;;26.90;99.90;;;;;;4927279;29;20051;-84
2021/09/10 11:35:36;;;;;;;3.83;1.80;;;26.40;99.90;;;;;;4927090;29;20037;-83
2021/09/10 11:38:03;;;;;;;4.95;2.25;;;26.00;99.90;;;;;;4926993;29;20040;-84
2021/09/10 11:40:31;;;;;;;3.08;2.45;;;25.80;99.90;;;;;;4926790;29;20041;-83
2021/09/10 11:43:09;;;;;;;3.97;2.30;;;25.10;99.90;;;;;;4927073;29;20039;-83
2021/09/10 11:45:40;;;;;;;2.92;1.52;;;25.30;99.90;;;;;;4942828;29;20025;-84
2021/09/10 11:48:06;;;;;;;;;;;25.80;99.90;;;;;;4942945;29;20052;-82
2021/09/10 11:50:48;;;;;;;3.03;1.42;;;25.60;99.90;;;;;;4958825;28;19915;-84
2021/09/10 11:53:21;;;;;;;1.92;1.02;;;25.50;99.90;;;;;;4942930;29;20036;-85
2021/09/10 11:56:08;;;;;;;3.00;1.88;;;25.40;99.90;;;;;;4927055;29;20036;-83
2021/09/10 11:58:40;;;;;;;2.95;1.17;;;25.50;99.90;;;;;;4927018;29;20463;-84
2021/09/10 12:01:22;;;;;;;2.47;1.63;;;25.40;99.90;;;;;;4926655;29;20028;-84
2021/09/10 12:03:57;;;;;;;4.00;1.10;;;25.80;99.90;;;;;;4928229;29;20036;-83
2021/09/10 12:06:27;;;;;;;3.35;0.98;;;25.60;99.90;;;;;;4926760;29;20060;-84
2021/09/10 12:09:18;;;;;;;3.08;1.25;;;25.40;99.90;;;;;;4938530;29;20212;-83
2021/09/10 12:12:12;;;;;;;2.97;1.50;;;25.10;99.90;;;;;;4961690;29;20044;-84
2021/09/10 12:14:47;;;;;;;3.58;1.38;;;24.80;99.90;;;;;;4947161;29;20039;-84
2021/09/10 12:17:17;;;;;;;3.33;1.42;;;24.90;99.90;;;;;;4945619;29;20057;-83
2021/09/10 12:19:53;;;;;;;3.30;1.20;;;24.40;99.90;;;;;;4929881;29;20075;-83
2021/09/10 12:22:41;;;;;;;2.10;1.00;;;24.50;99.90;;;;;;4946983;29;20030;-85
2021/09/10 12:25:19;;;;;;;2.30;1.35;;;24.50;99.90;;;;;;4929844;29;20101;-84
2021/09/10 12:27:46;;;;;;;1.80;0.95;;;24.30;99.90;;;;;;4929820;29;20263;-84
2021/09/10 12:30:14;;;;;;;4.28;1.70;;;24.00;99.90;;;;;;4932680;29;20024;-85
2021/09/10 12:32:41;;;;;;;8.88;5.47;;;23.30;99.90;;;;;;4949517;29;20034;-88
2021/09/10 12:35:07;;;;;;;6.68;6.00;;;22.50;99.90;;;;;;4950939;29;20055;-87
2021/09/10 12:37:34;;;;;;;7.75;5.53;;;22.00;99.90;;;;;;4965332;28;20024;-88
2021/09/10 12:40:00;;;;;;;11.05;6.55;;;21.70;99.90;;;;;;4966153;28;20472;-92
2021/09/10 12:42:28;;;;;;;11.40;7.70;;;21.50;99.90;;;;;;4934435;29;20028;-91
2021/09/10 12:44:56;;;;;;;8.40;5.25;;;21.20;99.90;;;;;;4934264;29;20031;-91
2021/09/10 12:47:22;;;;;;;7.55;5.32;;;20.90;99.90;;;;;;4933489;29;20047;-90
2021/09/10 12:49:50;;;;;;;5.30;3.95;;;20.90;99.90;;;;;;4949763;29;20047;-91